Pagina principale
METAR-TAF:

METAR-TAF

Aeroporti :

Aigen im Ennstal, Austria

latitudine: 47-32N, longitudine: 014-08E, altezza: 638 m

METAR: mancante

Ora: 13:55 (11:55 UTC)

Previsione

Il bollettino è stato emesso 6 ore e 40 minuti fa, alle 05:15 UTC
Previsione valida dal 21 alle 06 UTC al 21 alle 15 UTC
Vento 3 kt da direzioni variabili
Visibilità 10 km o più
Poco nuvoloso ad un'altezza di 6000 ft
Evoluzione graduale
dal 21 alle 09 UTC al 21 alle 11 UTC
Vento 8 kt da est/nord-est
Poco nuvoloso ad un'altezza di 6000 ft
Nubi sparse ad un'altezza di 8000 ft
Probabilità 30% :
Temporaneamente
dal 21 alle 11 UTC al 21 alle 15 UTC
Vento 10 kt da direzioni variabili
Nubi sparse ad un'altezza di 6000 ft
Poco nuvoloso ad un'altezza di 6000 ft, Cumulonembo.
rovesci di pioggia

TAF: LOXA 210515Z 2106/2115 VRB03KT 9999 FEW060 BECMG 2109/2111 06008KT FEW060 SCT080 PROB30 TEMPO 2111/2115 VRB10KT SHRA SCT060 FEW060CB

Osservazioni e previsioni meteorologiche di più di 4000 aeroporti (messaggi METAR e TAF).

Le stazioni disponibili sono rappresentate dai dischi gialli e rossi sulla carta.

Puntare il mouse per vedere il nome della stazione.

Clicca sopra per visualizzare le osservazioni e previsioni meteorologiche.

Per cambiare la mappa : fare clic sui pulsanti verdi con una croce nera per ingrandire, il pulsante verde con un trattino per diminuire, o sulla freccia verde per le mappe adiacenti.


METAR-TAF: